sensor_id;sensor_type;location;lat;lon;timestamp;pressure;altitude;pressure_sealevel;temperature;humidity
13581;BME280;6861;46.170;7.222;2023-03-04T00:01:23;96379.63;;;4.39;54.98
13581;BME280;6861;46.170;7.222;2023-03-04T00:03:51;96376.81;;;4.41;55.52
13581;BME280;6861;46.170;7.222;2023-03-04T00:06:19;96378.84;;;4.39;55.14
13581;BME280;6861;46.170;7.222;2023-03-04T00:08:48;96382.44;;;4.38;55.16
13581;BME280;6861;46.170;7.222;2023-03-04T00:11:16;96376.03;;;4.40;55.31
13581;BME280;6861;46.170;7.222;2023-03-04T00:13:44;96376.97;;;4.46;55.42
13581;BME280;6861;46.170;7.222;2023-03-04T00:16:12;96372.56;;;4.46;55.33
13581;BME280;6861;46.170;7.222;2023-03-04T00:18:40;96376.75;;;4.47;55.02
13581;BME280;6861;46.170;7.222;2023-03-04T00:21:08;96368.31;;;4.52;55.44
13581;BME280;6861;46.170;7.222;2023-03-04T00:23:36;96372.28;;;4.54;54.90
13581;BME280;6861;46.170;7.222;2023-03-04T00:26:08;96370.63;;;4.60;54.76
13581;BME280;6861;46.170;7.222;2023-03-04T00:28:36;96372.56;;;4.65;55.11
13581;BME280;6861;46.170;7.222;2023-03-04T00:31:05;96375.75;;;4.67;54.87
13581;BME280;6861;46.170;7.222;2023-03-04T00:33:34;96371.56;;;4.66;54.86
13581;BME280;6861;46.170;7.222;2023-03-04T00:36:02;96375.38;;;4.63;54.80
13581;BME280;6861;46.170;7.222;2023-03-04T00:38:31;96380.06;;;4.54;54.93
13581;BME280;6861;46.170;7.222;2023-03-04T00:40:59;96379.13;;;4.49;55.07
13581;BME280;6861;46.170;7.222;2023-03-04T00:43:28;96379.78;;;4.44;54.88
13581;BME280;6861;46.170;7.222;2023-03-04T00:45:57;96382.34;;;4.44;54.87
13581;BME280;6861;46.170;7.222;2023-03-04T00:48:26;96382.34;;;4.44;54.86
13581;BME280;6861;46.170;7.222;2023-03-04T00:50:54;96379.34;;;4.47;54.79
13581;BME280;6861;46.170;7.222;2023-03-04T00:53:22;96381.94;;;4.47;55.12
13581;BME280;6861;46.170;7.222;2023-03-04T00:55:50;96377.59;;;4.41;54.51
13581;BME280;6861;46.170;7.222;2023-03-04T00:58:18;96373.66;;;4.39;54.92
13581;BME280;6861;46.170;7.222;2023-03-04T01:00:48;96378.56;;;4.28;54.57
13581;BME280;6861;46.170;7.222;2023-03-04T01:03:16;96370.28;;;4.20;54.85
13581;BME280;6861;46.170;7.222;2023-03-04T01:05:44;96370.91;;;4.15;55.09
13581;BME280;6861;46.170;7.222;2023-03-04T01:08:12;96365.94;;;4.14;54.99
13581;BME280;6861;46.170;7.222;2023-03-04T01:10:40;96367.97;;;4.12;55.13
13581;BME280;6861;46.170;7.222;2023-03-04T01:13:08;96361.19;;;4.11;55.57
13581;BME280;6861;46.170;7.222;2023-03-04T01:15:36;96360.03;;;4.07;55.18
13581;BME280;6861;46.170;7.222;2023-03-04T01:18:05;96371.97;;;4.08;55.94
13581;BME280;6861;46.170;7.222;2023-03-04T01:20:33;96356.44;;;4.08;55.20
13581;BME280;6861;46.170;7.222;2023-03-04T01:23:01;96363.22;;;4.09;55.88
13581;BME280;6861;46.170;7.222;2023-03-04T01:25:29;96370.34;;;4.13;55.90
13581;BME280;6861;46.170;7.222;2023-03-04T01:27:57;96363.34;;;4.14;55.68
13581;BME280;6861;46.170;7.222;2023-03-04T01:30:25;96363.34;;;4.14;55.55
13581;BME280;6861;46.170;7.222;2023-03-04T01:32:53;96354.00;;;4.13;55.62
13581;BME280;6861;46.170;7.222;2023-03-04T01:35:23;96354.00;;;4.13;55.18
13581;BME280;6861;46.170;7.222;2023-03-04T01:37:51;96353.28;;;4.06;54.90
13581;BME280;6861;46.170;7.222;2023-03-04T01:40:19;96352.47;;;4.05;54.82
13581;BME280;6861;46.170;7.222;2023-03-04T01:42:47;96344.94;;;4.04;55.04
13581;BME280;6861;46.170;7.222;2023-03-04T01:45:17;96341.75;;;4.02;55.58
13581;BME280;6861;46.170;7.222;2023-03-04T01:47:47;96335.44;;;3.98;55.41
13581;BME280;6861;46.170;7.222;2023-03-04T01:50:25;96338.00;;;3.98;55.46
13581;BME280;6861;46.170;7.222;2023-03-04T01:52:54;96339.44;;;3.93;55.73
13581;BME280;6861;46.170;7.222;2023-03-04T01:55:23;96329.16;;;3.87;55.88
13581;BME280;6861;46.170;7.222;2023-03-04T01:57:52;96330.78;;;3.81;56.11
13581;BME280;6861;46.170;7.222;2023-03-04T02:00:26;96325.31;;;3.71;55.80
13581;BME280;6861;46.170;7.222;2023-03-04T02:02:58;96337.66;;;3.69;55.77
13581;BME280;6861;46.170;7.222;2023-03-04T02:05:28;96334.53;;;3.60;56.07
13581;BME280;6861;46.170;7.222;2023-03-04T02:07:57;96336.19;;;3.55;56.39
13581;BME280;6861;46.170;7.222;2023-03-04T02:10:27;96330.63;;;3.51;56.77
13581;BME280;6861;46.170;7.222;2023-03-04T02:12:55;96329.84;;;3.51;56.58
13581;BME280;6861;46.170;7.222;2023-03-04T02:15:24;96332.28;;;3.46;56.62
13581;BME280;6861;46.170;7.222;2023-03-04T02:17:52;96322.78;;;3.40;56.31
13581;BME280;6861;46.170;7.222;2023-03-04T02:20:34;96325.78;;;3.37;57.64
13581;BME280;6861;46.170;7.222;2023-03-04T02:23:09;96326.78;;;3.36;56.33
13581;BME280;6861;46.170;7.222;2023-03-04T02:25:42;96327.00;;;3.34;56.99
13581;BME280;6861;46.170;7.222;2023-03-04T02:28:13;96322.03;;;3.33;56.81
13581;BME280;6861;46.170;7.222;2023-03-04T02:30:41;96332.38;;;3.33;56.60
13581;BME280;6861;46.170;7.222;2023-03-04T02:33:13;96318.28;;;3.28;57.22
13581;BME280;6861;46.170;7.222;2023-03-04T02:35:42;96321.31;;;3.25;57.74
13581;BME280;6861;46.170;7.222;2023-03-04T02:38:11;96315.97;;;3.20;57.27
13581;BME280;6861;46.170;7.222;2023-03-04T02:40:42;96318.53;;;3.20;57.06
13581;BME280;6861;46.170;7.222;2023-03-04T02:43:14;96321.72;;;3.22;57.76
13581;BME280;6861;46.170;7.222;2023-03-04T02:45:44;96316.38;;;3.17;57.01
13581;BME280;6861;46.170;7.222;2023-03-04T02:48:14;96328.47;;;3.23;56.67
13581;BME280;6861;46.170;7.222;2023-03-04T02:50:45;96330.47;;;3.21;57.14
13581;BME280;6861;46.170;7.222;2023-03-04T02:53:14;96328.47;;;3.23;57.23
13581;BME280;6861;46.170;7.222;2023-03-04T02:55:42;96333.22;;;3.26;56.79
13581;BME280;6861;46.170;7.222;2023-03-04T02:58:13;96334.41;;;3.31;57.08
13581;BME280;6861;46.170;7.222;2023-03-04T03:00:41;96336.31;;;3.42;57.04
13581;BME280;6861;46.170;7.222;2023-03-04T03:03:10;96335.03;;;3.51;57.44
13581;BME280;6861;46.170;7.222;2023-03-04T03:05:38;96341.53;;;3.60;56.33
13581;BME280;6861;46.170;7.222;2023-03-04T03:08:06;96342.53;;;3.59;56.95
13581;BME280;6861;46.170;7.222;2023-03-04T03:10:34;96333.00;;;3.53;56.90
13581;BME280;6861;46.170;7.222;2023-03-04T03:13:02;96343.19;;;3.48;56.27
13581;BME280;6861;46.170;7.222;2023-03-04T03:15:32;96333.94;;;3.40;56.72
13581;BME280;6861;46.170;7.222;2023-03-04T03:18:00;96329.97;;;3.38;56.98
13581;BME280;6861;46.170;7.222;2023-03-04T03:20:28;96324.22;;;3.36;56.59
13581;BME280;6861;46.170;7.222;2023-03-04T03:22:56;96325.06;;;3.29;56.81
13581;BME280;6861;46.170;7.222;2023-03-04T03:25:24;96319.72;;;3.24;56.52
13581;BME280;6861;46.170;7.222;2023-03-04T03:27:52;96320.13;;;3.21;57.10
13581;BME280;6861;46.170;7.222;2023-03-04T03:30:20;96308.19;;;3.20;57.16
13581;BME280;6861;46.170;7.222;2023-03-04T03:32:49;96310.22;;;3.18;56.97
13581;BME280;6861;46.170;7.222;2023-03-04T03:35:17;96313.53;;;3.25;57.31
13581;BME280;6861;46.170;7.222;2023-03-04T03:37:46;96317.72;;;3.26;56.41
13581;BME280;6861;46.170;7.222;2023-03-04T03:40:15;96322.47;;;3.29;57.24
13581;BME280;6861;46.170;7.222;2023-03-04T03:42:43;96322.84;;;3.33;57.24
13581;BME280;6861;46.170;7.222;2023-03-04T03:45:11;96324.63;;;3.33;57.24
13581;BME280;6861;46.170;7.222;2023-03-04T03:47:39;96325.22;;;3.35;57.07
13581;BME280;6861;46.170;7.222;2023-03-04T03:50:09;96322.84;;;3.33;57.02
13581;BME280;6861;46.170;7.222;2023-03-04T03:52:38;96329.63;;;3.27;56.92
13581;BME280;6861;46.170;7.222;2023-03-04T03:55:06;96331.66;;;3.25;56.47
13581;BME280;6861;46.170;7.222;2023-03-04T03:57:34;96324.69;;;3.26;56.92
13581;BME280;6861;46.170;7.222;2023-03-04T04:00:03;96324.88;;;3.24;56.39
13581;BME280;6861;46.170;7.222;2023-03-04T04:02:31;96323.72;;;3.20;56.49
13581;BME280;6861;46.170;7.222;2023-03-04T04:05:00;96321.75;;;3.16;57.36
13581;BME280;6861;46.170;7.222;2023-03-04T04:07:31;96325.81;;;3.05;56.52
13581;BME280;6861;46.170;7.222;2023-03-04T04:09:59;96323.88;;;2.94;56.76
13581;BME280;6861;46.170;7.222;2023-03-04T04:12:27;96319.53;;;2.88;56.92
13581;BME280;6861;46.170;7.222;2023-03-04T04:14:55;96318.34;;;2.84;57.49
13581;BME280;6861;46.170;7.222;2023-03-04T04:17:23;96312.44;;;2.77;57.50
13581;BME280;6861;46.170;7.222;2023-03-04T04:19:51;96316.84;;;2.70;58.21
13581;BME280;6861;46.170;7.222;2023-03-04T04:22:19;96322.41;;;2.67;57.88
13581;BME280;6861;46.170;7.222;2023-03-04T04:24:49;96325.00;;;2.67;57.32
13581;BME280;6861;46.170;7.222;2023-03-04T04:27:17;96325.59;;;2.69;57.30
13581;BME280;6861;46.170;7.222;2023-03-04T04:29:45;96325.19;;;2.72;58.01
13581;BME280;6861;46.170;7.222;2023-03-04T04:32:13;96325.94;;;2.79;57.91
13581;BME280;6861;46.170;7.222;2023-03-04T04:34:41;96328.69;;;2.84;57.68
13581;BME280;6861;46.170;7.222;2023-03-04T04:37:09;96331.47;;;2.89;57.41
13581;BME280;6861;46.170;7.222;2023-03-04T04:39:37;96332.22;;;2.96;57.76
13581;BME280;6861;46.170;7.222;2023-03-04T04:42:07;96336.97;;;2.99;57.49
13581;BME280;6861;46.170;7.222;2023-03-04T04:44:36;96337.13;;;3.04;57.41
13581;BME280;6861;46.170;7.222;2023-03-04T04:47:05;96334.13;;;3.07;57.88
13581;BME280;6861;46.170;7.222;2023-03-04T04:49:33;96335.72;;;3.08;57.02
13581;BME280;6861;46.170;7.222;2023-03-04T04:52:02;96332.56;;;3.06;57.39
13581;BME280;6861;46.170;7.222;2023-03-04T04:54:30;96333.34;;;3.07;56.79
13581;BME280;6861;46.170;7.222;2023-03-04T04:56:58;96330.19;;;3.05;56.73
13581;BME280;6861;46.170;7.222;2023-03-04T04:59:27;96335.00;;;2.94;57.62
13581;BME280;6861;46.170;7.222;2023-03-04T05:01:55;96340.22;;;2.88;57.04
13581;BME280;6861;46.170;7.222;2023-03-04T05:04:23;96336.69;;;2.76;57.25
13581;BME280;6861;46.170;7.222;2023-03-04T05:06:52;96331.94;;;2.73;57.63
13581;BME280;6861;46.170;7.222;2023-03-04T05:09:20;96336.50;;;2.71;57.15
13581;BME280;6861;46.170;7.222;2023-03-04T05:11:48;96329.38;;;2.66;57.42
13581;BME280;6861;46.170;7.222;2023-03-04T05:14:16;96336.16;;;2.60;57.78
13581;BME280;6861;46.170;7.222;2023-03-04T05:16:46;96335.22;;;2.55;58.32
13581;BME280;6861;46.170;7.222;2023-03-04T05:19:14;96334.41;;;2.54;57.81
13581;BME280;6861;46.170;7.222;2023-03-04T05:21:42;96328.47;;;2.54;57.58
13581;BME280;6861;46.170;7.222;2023-03-04T05:24:10;96333.63;;;2.54;58.33
13581;BME280;6861;46.170;7.222;2023-03-04T05:26:38;96335.41;;;2.53;58.57
13581;BME280;6861;46.170;7.222;2023-03-04T05:29:06;96341.56;;;2.52;58.45
13581;BME280;6861;46.170;7.222;2023-03-04T05:31:34;96338.22;;;2.45;58.59
13581;BME280;6861;46.170;7.222;2023-03-04T05:34:04;96337.44;;;2.45;58.82
13581;BME280;6861;46.170;7.222;2023-03-04T05:36:32;96340.81;;;2.45;58.13
13581;BME280;6861;46.170;7.222;2023-03-04T05:39:00;96345.78;;;2.47;58.60
13581;BME280;6861;46.170;7.222;2023-03-04T05:41:28;96344.97;;;2.46;58.19
13581;BME280;6861;46.170;7.222;2023-03-04T05:43:56;96348.97;;;2.42;58.67
13581;BME280;6861;46.170;7.222;2023-03-04T05:46:24;96346.38;;;2.42;58.73
13581;BME280;6861;46.170;7.222;2023-03-04T05:48:53;96348.75;;;2.44;58.74
13581;BME280;6861;46.170;7.222;2023-03-04T05:51:22;96353.75;;;2.39;58.27
13581;BME280;6861;46.170;7.222;2023-03-04T05:53:51;96345.59;;;2.35;58.55
13581;BME280;6861;46.170;7.222;2023-03-04T05:56:19;96347.97;;;2.37;59.44
13581;BME280;6861;46.170;7.222;2023-03-04T05:58:47;96350.19;;;2.33;59.09
13581;BME280;6861;46.170;7.222;2023-03-04T06:01:16;96351.19;;;2.32;59.15
13581;BME280;6861;46.170;7.222;2023-03-04T06:03:44;96349.38;;;2.33;59.51
13581;BME280;6861;46.170;7.222;2023-03-04T06:06:14;96355.94;;;2.35;58.98
13581;BME280;6861;46.170;7.222;2023-03-04T06:08:43;96352.75;;;2.40;59.59
13581;BME280;6861;46.170;7.222;2023-03-04T06:11:11;96366.63;;;2.45;59.46
13581;BME280;6861;46.170;7.222;2023-03-04T06:13:39;96359.66;;;2.52;59.27
13581;BME280;6861;46.170;7.222;2023-03-04T06:16:08;96368.00;;;2.54;58.95
13581;BME280;6861;46.170;7.222;2023-03-04T06:18:37;96372.75;;;2.57;58.38
13581;BME280;6861;46.170;7.222;2023-03-04T06:21:05;96384.31;;;2.48;57.72
13581;BME280;6861;46.170;7.222;2023-03-04T06:23:33;96379.38;;;2.40;58.61
13581;BME280;6861;46.170;7.222;2023-03-04T06:26:03;96384.75;;;2.32;58.68
13581;BME280;6861;46.170;7.222;2023-03-04T06:28:34;96388.13;;;2.26;57.75
13581;BME280;6861;46.170;7.222;2023-03-04T06:31:02;96395.69;;;2.27;57.98
13581;BME280;6861;46.170;7.222;2023-03-04T06:33:31;96387.72;;;2.29;58.04
13581;BME280;6861;46.170;7.222;2023-03-04T06:35:59;96390.50;;;2.34;58.54
13581;BME280;6861;46.170;7.222;2023-03-04T06:38:27;96383.72;;;2.40;58.11
13581;BME280;6861;46.170;7.222;2023-03-04T06:40:55;96389.69;;;2.47;58.79
13581;BME280;6861;46.170;7.222;2023-03-04T06:43:25;96382.91;;;2.52;58.17
13581;BME280;6861;46.170;7.222;2023-03-04T06:45:53;96388.06;;;2.52;57.58
13581;BME280;6861;46.170;7.222;2023-03-04T06:48:21;96386.47;;;2.58;57.79
13581;BME280;6861;46.170;7.222;2023-03-04T06:50:49;96392.00;;;2.61;58.03
13581;BME280;6861;46.170;7.222;2023-03-04T06:53:17;96391.59;;;2.64;58.69
13581;BME280;6861;46.170;7.222;2023-03-04T06:55:45;96381.66;;;2.61;57.97
13581;BME280;6861;46.170;7.222;2023-03-04T06:58:13;96387.59;;;2.69;58.75
13581;BME280;6861;46.170;7.222;2023-03-04T07:00:44;96395.72;;;2.79;58.31
13581;BME280;6861;46.170;7.222;2023-03-04T07:03:12;96397.84;;;2.88;57.81
13581;BME280;6861;46.170;7.222;2023-03-04T07:05:41;96396.66;;;2.91;57.60
13581;BME280;6861;46.170;7.222;2023-03-04T07:08:09;96400.22;;;2.96;57.43
13581;BME280;6861;46.170;7.222;2023-03-04T07:10:37;96404.19;;;2.99;57.15
13581;BME280;6861;46.170;7.222;2023-03-04T07:13:05;96401.78;;;2.97;57.95
13581;BME280;6861;46.170;7.222;2023-03-04T07:15:33;96398.41;;;2.97;57.13
13581;BME280;6861;46.170;7.222;2023-03-04T07:18:03;96399.41;;;2.96;58.11
13581;BME280;6861;46.170;7.222;2023-03-04T07:20:31;96412.13;;;2.97;57.67
13581;BME280;6861;46.170;7.222;2023-03-04T07:22:59;96408.94;;;3.02;57.30
13581;BME280;6861;46.170;7.222;2023-03-04T07:25:27;96409.69;;;3.09;57.60
13581;BME280;6861;46.170;7.222;2023-03-04T07:27:55;96406.47;;;3.20;57.14
13581;BME280;6861;46.170;7.222;2023-03-04T07:30:23;96414.34;;;3.32;57.83
13581;BME280;6861;46.170;7.222;2023-03-04T07:32:52;96414.28;;;3.45;57.65
13581;BME280;6861;46.170;7.222;2023-03-04T07:35:21;96414.22;;;3.52;56.90
13581;BME280;6861;46.170;7.222;2023-03-04T07:37:49;96412.22;;;3.54;56.80
13581;BME280;6861;46.170;7.222;2023-03-04T07:40:17;96401.88;;;3.54;56.91
13581;BME280;6861;46.170;7.222;2023-03-04T07:42:48;96405.03;;;3.56;57.20
13581;BME280;6861;46.170;7.222;2023-03-04T07:45:16;96403.03;;;3.58;57.26
13581;BME280;6861;46.170;7.222;2023-03-04T07:47:45;96407.38;;;3.64;57.35
13581;BME280;6861;46.170;7.222;2023-03-04T07:50:14;96407.75;;;3.68;56.49
13581;BME280;6861;46.170;7.222;2023-03-04T07:52:46;96409.88;;;3.77;57.25
13581;BME280;6861;46.170;7.222;2023-03-04T07:55:17;96407.38;;;3.89;56.91
13581;BME280;6861;46.170;7.222;2023-03-04T07:57:46;96410.25;;;4.06;56.64
13581;BME280;6861;46.170;7.222;2023-03-04T08:00:15;96405.38;;;4.16;56.64
13581;BME280;6861;46.170;7.222;2023-03-04T08:02:44;96400.28;;;4.82;56.06
13581;BME280;6861;46.170;7.222;2023-03-04T08:05:12;96399.03;;;6.80;53.94
13581;BME280;6861;46.170;7.222;2023-03-04T08:07:40;96394.72;;;9.03;50.05
13581;BME280;6861;46.170;7.222;2023-03-04T08:10:10;96394.69;;;11.05;46.56
13581;BME280;6861;46.170;7.222;2023-03-04T08:12:38;96402.59;;;12.83;44.21
13581;BME280;6861;46.170;7.222;2023-03-04T08:15:08;96402.75;;;14.29;41.79
13581;BME280;6861;46.170;7.222;2023-03-04T08:17:36;96401.97;;;15.48;39.88
13581;BME280;6861;46.170;7.222;2023-03-04T08:20:05;96398.63;;;16.59;38.29
13581;BME280;6861;46.170;7.222;2023-03-04T08:22:34;96397.81;;;17.54;37.17
13581;BME280;6861;46.170;7.222;2023-03-04T08:25:02;96397.97;;;18.39;35.43
13581;BME280;6861;46.170;7.222;2023-03-04T08:27:32;96384.84;;;19.04;33.99
13581;BME280;6861;46.170;7.222;2023-03-04T08:30:00;96383.81;;;19.48;33.54
13581;BME280;6861;46.170;7.222;2023-03-04T08:32:28;96379.81;;;19.77;32.79
13581;BME280;6861;46.170;7.222;2023-03-04T08:34:56;96383.59;;;20.57;31.68
13581;BME280;6861;46.170;7.222;2023-03-04T08:37:24;96378.94;;;21.42;30.88
13581;BME280;6861;46.170;7.222;2023-03-04T08:39:52;96382.66;;;22.24;29.71
13581;BME280;6861;46.170;7.222;2023-03-04T08:42:20;96377.00;;;23.08;28.76
13581;BME280;6861;46.170;7.222;2023-03-04T08:44:51;96374.91;;;23.66;27.27
13581;BME280;6861;46.170;7.222;2023-03-04T08:47:19;96368.13;;;23.96;26.61
13581;BME280;6861;46.170;7.222;2023-03-04T08:49:47;96377.16;;;24.19;25.75
13581;BME280;6861;46.170;7.222;2023-03-04T08:52:15;96387.28;;;24.26;24.77
13581;BME280;6861;46.170;7.222;2023-03-04T08:54:43;96374.06;;;23.90;23.96
13581;BME280;6861;46.170;7.222;2023-03-04T08:57:11;96375.13;;;23.48;23.79
13581;BME280;6861;46.170;7.222;2023-03-04T08:59:39;96378.09;;;23.19;23.48
13581;BME280;6861;46.170;7.222;2023-03-04T09:02:09;96378.78;;;23.04;23.36
13581;BME280;6861;46.170;7.222;2023-03-04T09:04:37;96369.09;;;22.99;23.49
13581;BME280;6861;46.170;7.222;2023-03-04T09:07:06;96384.22;;;23.07;23.36
13581;BME280;6861;46.170;7.222;2023-03-04T09:09:35;96380.31;;;23.29;23.26
13581;BME280;6861;46.170;7.222;2023-03-04T09:12:03;96378.94;;;23.47;22.97
13581;BME280;6861;46.170;7.222;2023-03-04T09:14:31;96373.22;;;23.73;22.62
13581;BME280;6861;46.170;7.222;2023-03-04T09:17:02;96369.47;;;23.90;22.23
13581;BME280;6861;46.170;7.222;2023-03-04T09:19:31;96366.28;;;24.12;22.14
13581;BME280;6861;46.170;7.222;2023-03-04T09:21:59;96364.53;;;24.64;22.04
13581;BME280;6861;46.170;7.222;2023-03-04T09:24:27;96359.81;;;25.24;21.43
13581;BME280;6861;46.170;7.222;2023-03-04T09:26:56;96358.72;;;25.79;21.37
13581;BME280;6861;46.170;7.222;2023-03-04T09:29:24;96359.63;;;26.29;20.60
13581;BME280;6861;46.170;7.222;2023-03-04T09:31:52;96350.69;;;26.90;20.69
13581;BME280;6861;46.170;7.222;2023-03-04T09:34:20;96352.56;;;27.65;19.77
13581;BME280;6861;46.170;7.222;2023-03-04T09:36:49;96347.03;;;28.21;19.30
13581;BME280;6861;46.170;7.222;2023-03-04T09:39:17;96344.47;;;28.80;18.94
13581;BME280;6861;46.170;7.222;2023-03-04T09:41:47;96346.44;;;29.38;18.73
13581;BME280;6861;46.170;7.222;2023-03-04T09:44:22;96337.41;;;29.92;18.17
13581;BME280;6861;46.170;7.222;2023-03-04T09:46:52;96337.91;;;30.51;17.81
13581;BME280;6861;46.170;7.222;2023-03-04T09:49:24;96340.66;;;30.86;16.93
13581;BME280;6861;46.170;7.222;2023-03-04T09:51:59;96327.50;;;31.06;16.48
13581;BME280;6861;46.170;7.222;2023-03-04T09:54:54;96328.69;;;31.19;16.22
13581;BME280;6861;46.170;7.222;2023-03-04T09:57:29;96320.84;;;31.50;15.99
13581;BME280;6861;46.170;7.222;2023-03-04T10:00:12;96310.00;;;31.53;15.74
13581;BME280;6861;46.170;7.222;2023-03-04T10:02:59;96304.16;;;31.66;15.95
13581;BME280;6861;46.170;7.222;2023-03-04T10:05:32;96302.53;;;31.86;15.60
13581;BME280;6861;46.170;7.222;2023-03-04T10:08:11;96295.47;;;32.06;15.38
13581;BME280;6861;46.170;7.222;2023-03-04T10:10:48;96294.84;;;32.43;14.97
13581;BME280;6861;46.170;7.222;2023-03-04T10:13:20;96292.69;;;32.69;14.39
13581;BME280;6861;46.170;7.222;2023-03-04T10:15:50;96295.75;;;32.78;14.89
13581;BME280;6861;46.170;7.222;2023-03-04T10:18:21;96292.22;;;33.18;14.33
13581;BME280;6861;46.170;7.222;2023-03-04T10:20:53;96281.78;;;33.51;14.02
13581;BME280;6861;46.170;7.222;2023-03-04T10:23:26;96277.19;;;34.05;13.80
13581;BME280;6861;46.170;7.222;2023-03-04T10:25:55;96278.28;;;34.62;13.65
13581;BME280;6861;46.170;7.222;2023-03-04T10:28:24;96275.78;;;35.37;13.30
13581;BME280;6861;46.170;7.222;2023-03-04T10:30:58;96273.81;;;35.94;12.73
13581;BME280;6861;46.170;7.222;2023-03-04T10:33:30;96258.69;;;36.41;12.71
13581;BME280;6861;46.170;7.222;2023-03-04T10:36:01;96259.75;;;36.93;12.23
13581;BME280;6861;46.170;7.222;2023-03-04T10:38:33;96252.44;;;37.60;11.92
13581;BME280;6861;46.170;7.222;2023-03-04T10:41:11;96245.81;;;38.12;11.62
13581;BME280;6861;46.170;7.222;2023-03-04T10:43:39;96241.56;;;38.11;11.33
13581;BME280;6861;46.170;7.222;2023-03-04T10:46:10;96237.94;;;38.14;11.39
13581;BME280;6861;46.170;7.222;2023-03-04T10:48:41;96237.72;;;38.09;11.55
13581;BME280;6861;46.170;7.222;2023-03-04T10:51:15;96226.00;;;38.33;11.21
13581;BME280;6861;46.170;7.222;2023-03-04T10:53:48;96228.66;;;37.99;11.18
13581;BME280;6861;46.170;7.222;2023-03-04T10:56:36;96223.84;;;37.78;11.34
13581;BME280;6861;46.170;7.222;2023-03-04T10:59:42;96209.91;;;37.21;11.43
13581;BME280;6861;46.170;7.222;2023-03-04T11:02:23;96205.81;;;36.84;11.29
13581;BME280;6861;46.170;7.222;2023-03-04T11:05:04;96215.25;;;36.02;11.51
13581;BME280;6861;46.170;7.222;2023-03-04T11:07:38;96205.97;;;35.27;12.21
13581;BME280;6861;46.170;7.222;2023-03-04T11:10:29;96199.84;;;35.03;12.46
13581;BME280;6861;46.170;7.222;2023-03-04T11:12:59;96199.22;;;35.15;12.08
13581;BME280;6861;46.170;7.222;2023-03-04T11:15:29;96180.88;;;35.92;12.02
13581;BME280;6861;46.170;7.222;2023-03-04T11:17:59;96183.59;;;36.24;11.49
13581;BME280;6861;46.170;7.222;2023-03-04T11:20:31;96168.53;;;36.03;11.77
13581;BME280;6861;46.170;7.222;2023-03-04T11:23:04;96164.69;;;36.01;11.67
13581;BME280;6861;46.170;7.222;2023-03-04T11:25:37;96167.19;;;35.75;11.59
13581;BME280;6861;46.170;7.222;2023-03-04T11:28:14;96154.50;;;35.36;12.05
13581;BME280;6861;46.170;7.222;2023-03-04T11:30:46;96156.91;;;35.67;12.17
13581;BME280;6861;46.170;7.222;2023-03-04T11:33:22;96145.28;;;35.83;12.16
13581;BME280;6861;46.170;7.222;2023-03-04T11:36:02;96142.00;;;35.55;12.38
13581;BME280;6861;46.170;7.222;2023-03-04T11:38:35;96138.44;;;34.19;12.83
13581;BME280;6861;46.170;7.222;2023-03-04T11:41:12;96134.34;;;31.21;14.46
13581;BME280;6861;46.170;7.222;2023-03-04T11:43:44;96126.69;;;27.65;17.41
13581;BME280;6861;46.170;7.222;2023-03-04T11:46:36;96129.25;;;24.74;19.47
13581;BME280;6861;46.170;7.222;2023-03-04T11:49:31;96122.47;;;22.48;21.66
13581;BME280;6861;46.170;7.222;2023-03-04T11:52:07;96121.06;;;20.16;23.84
13581;BME280;6861;46.170;7.222;2023-03-04T11:54:58;96108.03;;;18.22;25.99
13581;BME280;6861;46.170;7.222;2023-03-04T11:57:43;96113.41;;;16.54;28.29
13581;BME280;6861;46.170;7.222;2023-03-04T12:00:26;96105.13;;;15.97;29.30
13581;BME280;6861;46.170;7.222;2023-03-04T12:03:14;96110.13;;;15.85;29.37
13581;BME280;6861;46.170;7.222;2023-03-04T12:05:53;96096.06;;;15.76;29.50
13581;BME280;6861;46.170;7.222;2023-03-04T12:08:38;96088.34;;;15.65;29.35
13581;BME280;6861;46.170;7.222;2023-03-04T12:11:20;96089.13;;;15.52;29.82
13581;BME280;6861;46.170;7.222;2023-03-04T12:14:23;96092.03;;;15.51;29.68
13581;BME280;6861;46.170;7.222;2023-03-04T12:17:25;96076.69;;;15.39;30.04
13581;BME280;6861;46.170;7.222;2023-03-04T12:20:17;96071.13;;;15.27;30.12
13581;BME280;6861;46.170;7.222;2023-03-04T12:22:51;96064.84;;;15.09;31.01
13581;BME280;6861;46.170;7.222;2023-03-04T12:25:36;96050.78;;;15.00;31.16
13581;BME280;6861;46.170;7.222;2023-03-04T12:28:30;96045.78;;;14.98;31.28
13581;BME280;6861;46.170;7.222;2023-03-04T12:31:22;96041.88;;;14.96;31.41
13581;BME280;6861;46.170;7.222;2023-03-04T12:34:13;96040.03;;;14.96;31.71
13581;BME280;6861;46.170;7.222;2023-03-04T12:36:54;96035.84;;;14.95;31.25
13581;BME280;6861;46.170;7.222;2023-03-04T12:39:31;96041.09;;;14.95;31.83
13581;BME280;6861;46.170;7.222;2023-03-04T12:42:08;96028.41;;;14.97;31.71
13581;BME280;6861;46.170;7.222;2023-03-04T12:44:46;96027.44;;;14.93;31.54
13581;BME280;6861;46.170;7.222;2023-03-04T12:47:27;96020.03;;;14.95;31.71
13581;BME280;6861;46.170;7.222;2023-03-04T12:50:12;96014.25;;;14.93;31.83
13581;BME280;6861;46.170;7.222;2023-03-04T12:52:54;96013.06;;;14.86;31.76
13581;BME280;6861;46.170;7.222;2023-03-04T12:55:35;96016.28;;;14.83;31.93
13581;BME280;6861;46.170;7.222;2023-03-04T12:58:05;95998.44;;;14.80;32.23
13581;BME280;6861;46.170;7.222;2023-03-04T13:00:42;95999.13;;;14.71;32.12
13581;BME280;6861;46.170;7.222;2023-03-04T13:03:19;95989.16;;;14.68;32.93
13581;BME280;6861;46.170;7.222;2023-03-04T13:06:03;95984.47;;;14.65;32.75
13581;BME280;6861;46.170;7.222;2023-03-04T13:08:39;95972.75;;;14.58;32.69
13581;BME280;6861;46.170;7.222;2023-03-04T13:11:50;95978.09;;;14.53;32.76
13581;BME280;6861;46.170;7.222;2023-03-04T13:14:32;95971.19;;;14.57;32.76
13581;BME280;6861;46.170;7.222;2023-03-04T13:17:33;95981.81;;;14.52;32.79
13581;BME280;6861;46.170;7.222;2023-03-04T13:20:31;95962.00;;;14.54;33.05
13581;BME280;6861;46.170;7.222;2023-03-04T13:23:01;95966.22;;;14.55;32.63
13581;BME280;6861;46.170;7.222;2023-03-04T13:25:41;95959.09;;;14.56;33.09
13581;BME280;6861;46.170;7.222;2023-03-04T13:28:20;95954.97;;;14.50;33.13
13581;BME280;6861;46.170;7.222;2023-03-04T13:34:01;95964.03;;;14.43;33.27
13581;BME280;6861;46.170;7.222;2023-03-04T13:39:33;95944.19;;;14.32;33.85
13581;BME280;6861;46.170;7.222;2023-03-04T13:42:04;95941.53;;;14.32;34.38
13581;BME280;6861;46.170;7.222;2023-03-04T13:44:57;95937.34;;;14.31;34.07
13581;BME280;6861;46.170;7.222;2023-03-04T13:47:31;95933.59;;;14.19;34.93